sensor_id;sensor_type;location;lat;lon;timestamp;temperature;humidity
563;DHT22;266;49.514;8.294;2023-03-08T00:00:36;6.40;99.90
563;DHT22;266;49.514;8.294;2023-03-08T00:03:04;6.50;99.90
563;DHT22;266;49.514;8.294;2023-03-08T00:05:32;6.50;99.90
563;DHT22;266;49.514;8.294;2023-03-08T00:08:00;6.40;99.90
563;DHT22;266;49.514;8.294;2023-03-08T00:10:28;6.40;99.90
563;DHT22;266;49.514;8.294;2023-03-08T00:12:58;6.40;99.90
563;DHT22;266;49.514;8.294;2023-03-08T00:15:25;6.50;99.90
563;DHT22;266;49.514;8.294;2023-03-08T00:17:53;6.50;99.90
563;DHT22;266;49.514;8.294;2023-03-08T00:20:21;6.50;99.90
563;DHT22;266;49.514;8.294;2023-03-08T00:22:49;6.60;99.90
563;DHT22;266;49.514;8.294;2023-03-08T00:25:17;6.60;99.90
563;DHT22;266;49.514;8.294;2023-03-08T00:27:45;6.50;99.90
563;DHT22;266;49.514;8.294;2023-03-08T00:30:16;6.50;99.90
563;DHT22;266;49.514;8.294;2023-03-08T00:32:44;6.50;99.90
563;DHT22;266;49.514;8.294;2023-03-08T00:35:12;6.50;99.90
563;DHT22;266;49.514;8.294;2023-03-08T00:37:40;6.60;99.90
563;DHT22;266;49.514;8.294;2023-03-08T00:40:09;6.50;99.90
563;DHT22;266;49.514;8.294;2023-03-08T00:42:37;6.50;99.90
563;DHT22;266;49.514;8.294;2023-03-08T00:45:06;6.50;99.90
563;DHT22;266;49.514;8.294;2023-03-08T00:47:36;6.40;99.90
563;DHT22;266;49.514;8.294;2023-03-08T00:50:04;6.50;99.90
563;DHT22;266;49.514;8.294;2023-03-08T00:52:32;6.30;99.90
563;DHT22;266;49.514;8.294;2023-03-08T00:55:00;6.30;99.90
563;DHT22;266;49.514;8.294;2023-03-08T00:57:28;6.30;99.90
563;DHT22;266;49.514;8.294;2023-03-08T00:59:57;6.20;99.90
563;DHT22;266;49.514;8.294;2023-03-08T01:02:25;6.20;99.90
563;DHT22;266;49.514;8.294;2023-03-08T01:04:55;6.20;99.90
563;DHT22;266;49.514;8.294;2023-03-08T01:07:23;6.20;99.90
563;DHT22;266;49.514;8.294;2023-03-08T01:09:54;6.20;99.90
563;DHT22;266;49.514;8.294;2023-03-08T01:12:22;6.20;99.90
563;DHT22;266;49.514;8.294;2023-03-08T01:14:51;6.20;99.90
563;DHT22;266;49.514;8.294;2023-03-08T01:17:18;6.10;99.90
563;DHT22;266;49.514;8.294;2023-03-08T01:19:46;6.10;99.90
563;DHT22;266;49.514;8.294;2023-03-08T01:22:16;6.10;99.90
563;DHT22;266;49.514;8.294;2023-03-08T01:24:43;6.00;99.90
563;DHT22;266;49.514;8.294;2023-03-08T01:27:11;6.00;99.90
563;DHT22;266;49.514;8.294;2023-03-08T01:29:40;6.00;99.90
563;DHT22;266;49.514;8.294;2023-03-08T01:32:08;6.00;99.90
563;DHT22;266;49.514;8.294;2023-03-08T01:34:36;6.00;99.90
563;DHT22;266;49.514;8.294;2023-03-08T01:37:04;6.00;99.90
563;DHT22;266;49.514;8.294;2023-03-08T01:39:34;6.00;99.90
563;DHT22;266;49.514;8.294;2023-03-08T01:42:03;6.00;99.90
563;DHT22;266;49.514;8.294;2023-03-08T01:44:52;5.90;99.90
563;DHT22;266;49.514;8.294;2023-03-08T01:47:21;5.90;99.90
563;DHT22;266;49.514;8.294;2023-03-08T01:49:51;5.90;99.90
563;DHT22;266;49.514;8.294;2023-03-08T01:52:22;5.90;99.90
563;DHT22;266;49.514;8.294;2023-03-08T01:54:55;5.90;99.90
563;DHT22;266;49.514;8.294;2023-03-08T01:57:26;5.90;99.90
563;DHT22;266;49.514;8.294;2023-03-08T01:59:56;5.90;99.90
563;DHT22;266;49.514;8.294;2023-03-08T02:02:28;5.90;99.90
563;DHT22;266;49.514;8.294;2023-03-08T02:04:57;5.90;99.90
563;DHT22;266;49.514;8.294;2023-03-08T02:07:25;5.90;99.90
563;DHT22;266;49.514;8.294;2023-03-08T02:09:55;6.00;99.90
563;DHT22;266;49.514;8.294;2023-03-08T02:12:23;6.00;99.90
563;DHT22;266;49.514;8.294;2023-03-08T02:14:52;5.90;99.90
563;DHT22;266;49.514;8.294;2023-03-08T02:17:21;6.00;99.90
563;DHT22;266;49.514;8.294;2023-03-08T02:19:53;6.00;99.90
563;DHT22;266;49.514;8.294;2023-03-08T02:22:22;6.00;99.90
563;DHT22;266;49.514;8.294;2023-03-08T02:24:51;6.00;99.90
563;DHT22;266;49.514;8.294;2023-03-08T02:27:23;6.00;99.90
563;DHT22;266;49.514;8.294;2023-03-08T02:29:52;6.00;99.90
563;DHT22;266;49.514;8.294;2023-03-08T02:32:20;6.00;99.90
563;DHT22;266;49.514;8.294;2023-03-08T02:34:48;6.00;99.90
563;DHT22;266;49.514;8.294;2023-03-08T02:37:16;5.90;99.90
563;DHT22;266;49.514;8.294;2023-03-08T02:39:44;5.90;99.90
563;DHT22;266;49.514;8.294;2023-03-08T02:42:13;5.80;99.90
563;DHT22;266;49.514;8.294;2023-03-08T02:44:41;5.80;99.90
563;DHT22;266;49.514;8.294;2023-03-08T02:47:09;5.90;99.90
563;DHT22;266;49.514;8.294;2023-03-08T02:49:38;5.80;99.90
563;DHT22;266;49.514;8.294;2023-03-08T02:52:06;5.80;99.90
563;DHT22;266;49.514;8.294;2023-03-08T02:54:34;5.90;99.90
563;DHT22;266;49.514;8.294;2023-03-08T02:57:02;5.90;99.90
563;DHT22;266;49.514;8.294;2023-03-08T02:59:31;5.80;99.90
563;DHT22;266;49.514;8.294;2023-03-08T03:01:59;5.80;99.90
563;DHT22;266;49.514;8.294;2023-03-08T03:04:28;5.80;99.90
563;DHT22;266;49.514;8.294;2023-03-08T03:06:57;5.90;99.90
563;DHT22;266;49.514;8.294;2023-03-08T03:09:25;5.80;99.90
563;DHT22;266;49.514;8.294;2023-03-08T03:11:53;5.80;99.90
563;DHT22;266;49.514;8.294;2023-03-08T03:14:21;5.70;99.90
563;DHT22;266;49.514;8.294;2023-03-08T03:16:51;5.70;99.90
563;DHT22;266;49.514;8.294;2023-03-08T03:19:18;5.70;99.90
563;DHT22;266;49.514;8.294;2023-03-08T03:21:46;5.60;99.90
563;DHT22;266;49.514;8.294;2023-03-08T03:24:14;5.60;99.90
563;DHT22;266;49.514;8.294;2023-03-08T03:26:42;5.60;99.90
563;DHT22;266;49.514;8.294;2023-03-08T03:29:10;5.50;99.90
563;DHT22;266;49.514;8.294;2023-03-08T03:31:38;5.40;99.90
563;DHT22;266;49.514;8.294;2023-03-08T03:34:08;5.40;99.90
563;DHT22;266;49.514;8.294;2023-03-08T03:36:36;5.30;99.90
563;DHT22;266;49.514;8.294;2023-03-08T03:39:04;5.40;99.90
563;DHT22;266;49.514;8.294;2023-03-08T03:41:32;5.30;99.90
563;DHT22;266;49.514;8.294;2023-03-08T03:44:00;5.20;99.90
563;DHT22;266;49.514;8.294;2023-03-08T03:46:28;5.20;99.90
563;DHT22;266;49.514;8.294;2023-03-08T03:48:56;5.20;99.90
563;DHT22;266;49.514;8.294;2023-03-08T03:51:26;5.20;99.90
563;DHT22;266;49.514;8.294;2023-03-08T03:53:54;5.30;99.90
563;DHT22;266;49.514;8.294;2023-03-08T03:56:26;5.40;99.90
563;DHT22;266;49.514;8.294;2023-03-08T03:58:54;5.50;99.90
563;DHT22;266;49.514;8.294;2023-03-08T04:01:24;5.50;99.90
563;DHT22;266;49.514;8.294;2023-03-08T04:03:53;5.50;99.90
563;DHT22;266;49.514;8.294;2023-03-08T04:06:23;5.50;99.90
563;DHT22;266;49.514;8.294;2023-03-08T04:08:55;5.50;99.90
563;DHT22;266;49.514;8.294;2023-03-08T04:11:25;5.50;99.90
563;DHT22;266;49.514;8.294;2023-03-08T04:13:54;5.50;99.90
563;DHT22;266;49.514;8.294;2023-03-08T04:16:23;5.40;99.90
563;DHT22;266;49.514;8.294;2023-03-08T04:18:56;5.30;99.90
563;DHT22;266;49.514;8.294;2023-03-08T04:21:25;5.10;99.90
563;DHT22;266;49.514;8.294;2023-03-08T04:23:54;5.00;99.90
563;DHT22;266;49.514;8.294;2023-03-08T04:26:26;4.90;99.90
563;DHT22;266;49.514;8.294;2023-03-08T04:28:53;4.80;99.90
563;DHT22;266;49.514;8.294;2023-03-08T04:31:24;4.80;99.90
563;DHT22;266;49.514;8.294;2023-03-08T04:33:52;4.70;99.90
563;DHT22;266;49.514;8.294;2023-03-08T04:36:21;4.70;99.90
563;DHT22;266;49.514;8.294;2023-03-08T04:38:49;4.70;99.90
563;DHT22;266;49.514;8.294;2023-03-08T04:41:19;4.70;99.90
563;DHT22;266;49.514;8.294;2023-03-08T04:43:48;4.70;99.90
563;DHT22;266;49.514;8.294;2023-03-08T04:46:18;4.70;99.90
563;DHT22;266;49.514;8.294;2023-03-08T04:48:46;4.60;99.90
563;DHT22;266;49.514;8.294;2023-03-08T04:51:15;4.60;99.90
563;DHT22;266;49.514;8.294;2023-03-08T04:53:44;4.50;99.90
563;DHT22;266;49.514;8.294;2023-03-08T04:56:14;4.50;99.90
563;DHT22;266;49.514;8.294;2023-03-08T04:58:44;4.60;99.90
563;DHT22;266;49.514;8.294;2023-03-08T05:01:14;4.60;99.90
563;DHT22;266;49.514;8.294;2023-03-08T05:03:43;4.60;99.90
563;DHT22;266;49.514;8.294;2023-03-08T05:06:11;4.60;99.90
563;DHT22;266;49.514;8.294;2023-03-08T05:08:40;4.60;99.90
563;DHT22;266;49.514;8.294;2023-03-08T05:11:09;4.60;99.90
563;DHT22;266;49.514;8.294;2023-03-08T05:13:38;4.60;99.90
563;DHT22;266;49.514;8.294;2023-03-08T05:16:07;4.60;99.90
563;DHT22;266;49.514;8.294;2023-03-08T05:18:35;4.60;99.90
563;DHT22;266;49.514;8.294;2023-03-08T05:21:08;4.70;99.90
563;DHT22;266;49.514;8.294;2023-03-08T05:23:37;4.70;99.90
563;DHT22;266;49.514;8.294;2023-03-08T05:26:05;4.70;99.90
563;DHT22;266;49.514;8.294;2023-03-08T05:28:35;4.70;99.90
563;DHT22;266;49.514;8.294;2023-03-08T05:31:05;4.80;99.90
563;DHT22;266;49.514;8.294;2023-03-08T05:33:35;4.80;99.90
563;DHT22;266;49.514;8.294;2023-03-08T05:36:04;4.80;99.90
563;DHT22;266;49.514;8.294;2023-03-08T05:38:33;4.80;99.90
563;DHT22;266;49.514;8.294;2023-03-08T05:41:04;4.80;99.90
563;DHT22;266;49.514;8.294;2023-03-08T05:43:33;4.70;99.90
563;DHT22;266;49.514;8.294;2023-03-08T05:46:03;4.70;99.90
563;DHT22;266;49.514;8.294;2023-03-08T05:48:32;4.80;99.90
563;DHT22;266;49.514;8.294;2023-03-08T05:51:05;4.70;99.90
563;DHT22;266;49.514;8.294;2023-03-08T05:53:34;4.70;99.90
563;DHT22;266;49.514;8.294;2023-03-08T05:56:07;4.70;99.90
563;DHT22;266;49.514;8.294;2023-03-08T05:58:36;4.70;99.90
563;DHT22;266;49.514;8.294;2023-03-08T06:01:10;4.70;99.90
563;DHT22;266;49.514;8.294;2023-03-08T06:03:38;4.70;99.90
563;DHT22;266;49.514;8.294;2023-03-08T06:06:08;4.70;99.90
563;DHT22;266;49.514;8.294;2023-03-08T06:08:36;4.70;99.90
563;DHT22;266;49.514;8.294;2023-03-08T06:11:05;4.70;99.90
563;DHT22;266;49.514;8.294;2023-03-08T06:13:33;4.70;99.90
563;DHT22;266;49.514;8.294;2023-03-08T06:16:01;4.70;99.90
563;DHT22;266;49.514;8.294;2023-03-08T06:18:30;4.70;99.90
563;DHT22;266;49.514;8.294;2023-03-08T06:21:00;4.70;99.90
563;DHT22;266;49.514;8.294;2023-03-08T06:23:31;4.70;99.90
563;DHT22;266;49.514;8.294;2023-03-08T06:25:59;4.70;99.90
563;DHT22;266;49.514;8.294;2023-03-08T06:28:29;4.70;99.90
563;DHT22;266;49.514;8.294;2023-03-08T06:30:57;4.60;99.90
563;DHT22;266;49.514;8.294;2023-03-08T06:33:27;4.60;99.90
563;DHT22;266;49.514;8.294;2023-03-08T06:35:56;4.60;99.90
563;DHT22;266;49.514;8.294;2023-03-08T06:38:25;4.60;99.90
563;DHT22;266;49.514;8.294;2023-03-08T06:40:57;4.60;99.90
563;DHT22;266;49.514;8.294;2023-03-08T06:43:25;4.60;99.90
563;DHT22;266;49.514;8.294;2023-03-08T06:45:53;4.60;99.90
563;DHT22;266;49.514;8.294;2023-03-08T06:48:22;4.60;99.90
563;DHT22;266;49.514;8.294;2023-03-08T06:50:50;4.60;99.90
563;DHT22;266;49.514;8.294;2023-03-08T06:53:18;4.70;99.90
563;DHT22;266;49.514;8.294;2023-03-08T06:55:46;4.70;99.90
563;DHT22;266;49.514;8.294;2023-03-08T06:58:15;4.70;99.90
563;DHT22;266;49.514;8.294;2023-03-08T07:00:43;4.70;99.90
563;DHT22;266;49.514;8.294;2023-03-08T07:03:12;4.70;99.90
563;DHT22;266;49.514;8.294;2023-03-08T07:05:40;4.70;99.90
563;DHT22;266;49.514;8.294;2023-03-08T07:08:08;4.70;99.90
563;DHT22;266;49.514;8.294;2023-03-08T07:10:36;4.70;99.90
563;DHT22;266;49.514;8.294;2023-03-08T07:13:04;4.70;99.90
563;DHT22;266;49.514;8.294;2023-03-08T07:15:38;4.70;99.90
563;DHT22;266;49.514;8.294;2023-03-08T07:18:06;4.70;99.90
563;DHT22;266;49.514;8.294;2023-03-08T07:20:34;4.80;99.90
563;DHT22;266;49.514;8.294;2023-03-08T07:23:02;4.80;99.90
563;DHT22;266;49.514;8.294;2023-03-08T07:25:30;4.80;99.90
563;DHT22;266;49.514;8.294;2023-03-08T07:27:58;4.70;99.90
563;DHT22;266;49.514;8.294;2023-03-08T07:30:26;4.70;99.90
563;DHT22;266;49.514;8.294;2023-03-08T07:32:55;4.60;99.90
563;DHT22;266;49.514;8.294;2023-03-08T07:35:23;4.50;99.90
563;DHT22;266;49.514;8.294;2023-03-08T07:37:51;4.30;99.90
563;DHT22;266;49.514;8.294;2023-03-08T07:40:20;4.20;99.90
563;DHT22;266;49.514;8.294;2023-03-08T07:42:48;4.10;99.90
563;DHT22;266;49.514;8.294;2023-03-08T07:45:16;4.00;99.90
563;DHT22;266;49.514;8.294;2023-03-08T07:47:44;3.90;99.90
563;DHT22;266;49.514;8.294;2023-03-08T07:50:13;3.90;99.90
563;DHT22;266;49.514;8.294;2023-03-08T07:52:41;3.80;99.90
563;DHT22;266;49.514;8.294;2023-03-08T07:55:09;3.70;99.90
563;DHT22;266;49.514;8.294;2023-03-08T07:57:37;3.60;99.90
563;DHT22;266;49.514;8.294;2023-03-08T08:00:06;3.50;99.90
563;DHT22;266;49.514;8.294;2023-03-08T08:02:35;3.50;99.90
563;DHT22;266;49.514;8.294;2023-03-08T08:05:04;3.40;99.90
563;DHT22;266;49.514;8.294;2023-03-08T08:07:33;3.30;99.90
563;DHT22;266;49.514;8.294;2023-03-08T08:10:02;3.20;99.90
563;DHT22;266;49.514;8.294;2023-03-08T08:12:30;3.20;99.90
563;DHT22;266;49.514;8.294;2023-03-08T08:14:58;3.10;99.90
563;DHT22;266;49.514;8.294;2023-03-08T08:17:26;3.00;99.90
563;DHT22;266;49.514;8.294;2023-03-08T08:19:54;3.00;99.90
563;DHT22;266;49.514;8.294;2023-03-08T08:22:22;3.00;99.90
563;DHT22;266;49.514;8.294;2023-03-08T08:24:51;2.90;99.90
563;DHT22;266;49.514;8.294;2023-03-08T08:27:19;2.90;99.90
563;DHT22;266;49.514;8.294;2023-03-08T08:29:47;2.90;99.90
563;DHT22;266;49.514;8.294;2023-03-08T08:32:16;2.90;99.90
563;DHT22;266;49.514;8.294;2023-03-08T08:34:44;2.90;99.90
563;DHT22;266;49.514;8.294;2023-03-08T08:37:12;2.90;99.90
563;DHT22;266;49.514;8.294;2023-03-08T08:39:40;2.80;99.90
563;DHT22;266;49.514;8.294;2023-03-08T08:42:09;2.90;99.90
563;DHT22;266;49.514;8.294;2023-03-08T08:44:37;2.90;99.90
563;DHT22;266;49.514;8.294;2023-03-08T08:47:05;2.90;99.90
563;DHT22;266;49.514;8.294;2023-03-08T08:49:34;2.80;99.90
563;DHT22;266;49.514;8.294;2023-03-08T08:52:03;2.80;99.90
563;DHT22;266;49.514;8.294;2023-03-08T08:54:30;2.80;99.90
563;DHT22;266;49.514;8.294;2023-03-08T08:56:59;2.80;99.90
563;DHT22;266;49.514;8.294;2023-03-08T08:59:29;2.80;99.90
563;DHT22;266;49.514;8.294;2023-03-08T09:01:57;2.80;99.90
563;DHT22;266;49.514;8.294;2023-03-08T09:04:25;2.80;99.90
563;DHT22;266;49.514;8.294;2023-03-08T09:06:53;2.80;99.90
563;DHT22;266;49.514;8.294;2023-03-08T09:09:21;2.80;99.90
563;DHT22;266;49.514;8.294;2023-03-08T09:11:49;2.80;99.90
563;DHT22;266;49.514;8.294;2023-03-08T09:14:22;2.80;99.90
563;DHT22;266;49.514;8.294;2023-03-08T09:16:52;2.80;99.90
563;DHT22;266;49.514;8.294;2023-03-08T09:19:20;2.80;99.90
563;DHT22;266;49.514;8.294;2023-03-08T09:21:48;2.90;99.90
563;DHT22;266;49.514;8.294;2023-03-08T09:24:16;2.90;99.90
563;DHT22;266;49.514;8.294;2023-03-08T09:26:44;2.90;99.90
563;DHT22;266;49.514;8.294;2023-03-08T09:29:12;2.90;99.90
563;DHT22;266;49.514;8.294;2023-03-08T09:31:40;2.90;99.90
563;DHT22;266;49.514;8.294;2023-03-08T09:34:12;2.90;99.90
563;DHT22;266;49.514;8.294;2023-03-08T09:36:41;2.90;99.90
563;DHT22;266;49.514;8.294;2023-03-08T09:39:11;2.90;99.90
563;DHT22;266;49.514;8.294;2023-03-08T09:41:55;2.90;99.90
563;DHT22;266;49.514;8.294;2023-03-08T09:44:52;2.80;99.90
563;DHT22;266;49.514;8.294;2023-03-08T09:47:30;2.80;99.90
563;DHT22;266;49.514;8.294;2023-03-08T09:50:13;2.80;99.90
563;DHT22;266;49.514;8.294;2023-03-08T09:52:44;2.90;99.90
563;DHT22;266;49.514;8.294;2023-03-08T09:55:18;2.90;99.90
563;DHT22;266;49.514;8.294;2023-03-08T09:57:53;2.90;99.90
563;DHT22;266;49.514;8.294;2023-03-08T10:00:25;3.00;99.90
563;DHT22;266;49.514;8.294;2023-03-08T10:03:12;3.00;99.90
563;DHT22;266;49.514;8.294;2023-03-08T10:05:48;3.00;99.90
563;DHT22;266;49.514;8.294;2023-03-08T10:08:22;3.00;99.90
563;DHT22;266;49.514;8.294;2023-03-08T10:10:56;2.90;99.90
563;DHT22;266;49.514;8.294;2023-03-08T10:13:29;2.90;99.90
563;DHT22;266;49.514;8.294;2023-03-08T10:16:11;2.90;99.90
563;DHT22;266;49.514;8.294;2023-03-08T10:18:43;3.00;99.90
563;DHT22;266;49.514;8.294;2023-03-08T10:21:16;3.00;99.90
563;DHT22;266;49.514;8.294;2023-03-08T10:23:47;3.00;99.90
563;DHT22;266;49.514;8.294;2023-03-08T10:26:15;3.10;99.90
563;DHT22;266;49.514;8.294;2023-03-08T10:28:44;3.10;99.90
563;DHT22;266;49.514;8.294;2023-03-08T10:31:19;3.10;99.90
563;DHT22;266;49.514;8.294;2023-03-08T10:33:52;3.10;99.90
563;DHT22;266;49.514;8.294;2023-03-08T10:36:24;3.10;99.90
563;DHT22;266;49.514;8.294;2023-03-08T10:39:00;3.10;99.90
563;DHT22;266;49.514;8.294;2023-03-08T10:41:39;3.10;99.90
563;DHT22;266;49.514;8.294;2023-03-08T10:44:12;3.10;99.90
563;DHT22;266;49.514;8.294;2023-03-08T10:46:48;3.20;99.90
563;DHT22;266;49.514;8.294;2023-03-08T10:49:17;3.20;99.90
563;DHT22;266;49.514;8.294;2023-03-08T10:51:55;3.30;99.90
563;DHT22;266;49.514;8.294;2023-03-08T10:54:24;3.40;99.90
563;DHT22;266;49.514;8.294;2023-03-08T10:56:55;3.40;99.90
563;DHT22;266;49.514;8.294;2023-03-08T10:59:27;3.40;99.90
563;DHT22;266;49.514;8.294;2023-03-08T11:02:00;3.50;99.90
563;DHT22;266;49.514;8.294;2023-03-08T11:04:29;3.50;99.90
563;DHT22;266;49.514;8.294;2023-03-08T11:07:09;3.60;99.90
563;DHT22;266;49.514;8.294;2023-03-08T11:09:38;3.60;99.90
563;DHT22;266;49.514;8.294;2023-03-08T11:12:20;3.60;99.90
563;DHT22;266;49.514;8.294;2023-03-08T11:14:50;3.70;99.90
563;DHT22;266;49.514;8.294;2023-03-08T11:17:23;3.80;99.90
563;DHT22;266;49.514;8.294;2023-03-08T11:20:02;3.90;99.90
563;DHT22;266;49.514;8.294;2023-03-08T11:22:47;3.90;99.90
563;DHT22;266;49.514;8.294;2023-03-08T11:25:31;4.00;99.90
563;DHT22;266;49.514;8.294;2023-03-08T11:28:13;4.10;99.90
563;DHT22;266;49.514;8.294;2023-03-08T11:30:54;4.20;99.90
563;DHT22;266;49.514;8.294;2023-03-08T11:33:40;4.30;99.90
563;DHT22;266;49.514;8.294;2023-03-08T11:36:17;4.50;99.90
563;DHT22;266;49.514;8.294;2023-03-08T11:38:54;4.60;99.90
563;DHT22;266;49.514;8.294;2023-03-08T11:41:28;4.70;99.90
563;DHT22;266;49.514;8.294;2023-03-08T11:44:16;4.80;99.90
563;DHT22;266;49.514;8.294;2023-03-08T11:47:02;4.90;99.90
563;DHT22;266;49.514;8.294;2023-03-08T11:49:53;5.00;99.90
563;DHT22;266;49.514;8.294;2023-03-08T11:52:30;5.10;99.90
563;DHT22;266;49.514;8.294;2023-03-08T11:55:15;5.20;99.90
563;DHT22;266;49.514;8.294;2023-03-08T11:57:52;5.30;99.90
563;DHT22;266;49.514;8.294;2023-03-08T12:00:25;5.40;99.90
563;DHT22;266;49.514;8.294;2023-03-08T12:03:00;5.50;99.90
563;DHT22;266;49.514;8.294;2023-03-08T12:05:34;5.60;99.90
563;DHT22;266;49.514;8.294;2023-03-08T12:08:11;5.70;99.90
563;DHT22;266;49.514;8.294;2023-03-08T12:10:46;5.80;99.90
563;DHT22;266;49.514;8.294;2023-03-08T12:13:20;5.90;99.90
563;DHT22;266;49.514;8.294;2023-03-08T12:15:53;6.10;99.90
563;DHT22;266;49.514;8.294;2023-03-08T12:18:26;6.20;99.90
563;DHT22;266;49.514;8.294;2023-03-08T12:21:01;6.30;99.90
563;DHT22;266;49.514;8.294;2023-03-08T12:23:37;6.40;99.90
563;DHT22;266;49.514;8.294;2023-03-08T12:26:10;6.50;99.90
563;DHT22;266;49.514;8.294;2023-03-08T12:28:44;6.60;99.90
563;DHT22;266;49.514;8.294;2023-03-08T12:31:22;6.70;99.90
563;DHT22;266;49.514;8.294;2023-03-08T12:33:55;6.80;99.90
563;DHT22;266;49.514;8.294;2023-03-08T12:36:35;7.00;99.90
563;DHT22;266;49.514;8.294;2023-03-08T12:39:06;7.10;99.90
563;DHT22;266;49.514;8.294;2023-03-08T12:41:36;7.30;99.90
563;DHT22;266;49.514;8.294;2023-03-08T12:44:06;7.40;99.90
563;DHT22;266;49.514;8.294;2023-03-08T12:46:50;7.50;99.90
563;DHT22;266;49.514;8.294;2023-03-08T12:49:31;7.60;99.90
563;DHT22;266;49.514;8.294;2023-03-08T12:52:03;7.70;99.90
563;DHT22;266;49.514;8.294;2023-03-08T12:54:33;7.80;99.90
563;DHT22;266;49.514;8.294;2023-03-08T12:57:14;7.90;99.90
563;DHT22;266;49.514;8.294;2023-03-08T12:59:43;8.00;99.90
563;DHT22;266;49.514;8.294;2023-03-08T13:02:23;8.10;99.90
563;DHT22;266;49.514;8.294;2023-03-08T13:05:02;8.20;99.90
563;DHT22;266;49.514;8.294;2023-03-08T13:07:33;8.40;99.90
563;DHT22;266;49.514;8.294;2023-03-08T13:10:07;8.50;99.90
563;DHT22;266;49.514;8.294;2023-03-08T13:13:14;8.60;99.90
563;DHT22;266;49.514;8.294;2023-03-08T13:16:06;8.90;99.90
563;DHT22;266;49.514;8.294;2023-03-08T13:18:35;9.50;99.90
563;DHT22;266;49.514;8.294;2023-03-08T13:21:16;10.00;99.90
563;DHT22;266;49.514;8.294;2023-03-08T13:23:49;10.40;99.90
563;DHT22;266;49.514;8.294;2023-03-08T13:29:19;10.90;99.90
563;DHT22;266;49.514;8.294;2023-03-08T13:31:48;11.10;99.90
563;DHT22;266;49.514;8.294;2023-03-08T13:34:24;11.10;99.90
563;DHT22;266;49.514;8.294;2023-03-08T13:36:52;11.20;99.90
563;DHT22;266;49.514;8.294;2023-03-08T13:39:22;11.20;99.90
563;DHT22;266;49.514;8.294;2023-03-08T13:41:50;11.20;99.90
563;DHT22;266;49.514;8.294;2023-03-08T13:44:22;11.20;99.90
563;DHT22;266;49.514;8.294;2023-03-08T13:46:53;11.20;99.90
563;DHT22;266;49.514;8.294;2023-03-08T13:49:24;11.10;99.90
563;DHT22;266;49.514;8.294;2023-03-08T13:51:54;11.10;99.90
563;DHT22;266;49.514;8.294;2023-03-08T13:54:25;11.10;99.90
563;DHT22;266;49.514;8.294;2023-03-08T13:56:55;11.00;99.90
563;DHT22;266;49.514;8.294;2023-03-08T13:59:25;11.00;99.90
563;DHT22;266;49.514;8.294;2023-03-08T14:01:53;11.00;99.90
563;DHT22;266;49.514;8.294;2023-03-08T14:04:23;11.00;99.90
563;DHT22;266;49.514;8.294;2023-03-08T14:06:53;10.90;99.90
563;DHT22;266;49.514;8.294;2023-03-08T14:09:22;11.00;99.90
563;DHT22;266;49.514;8.294;2023-03-08T14:11:57;11.00;99.90
563;DHT22;266;49.514;8.294;2023-03-08T14:14:30;11.10;99.90
563;DHT22;266;49.514;8.294;2023-03-08T14:16:59;11.20;99.90
563;DHT22;266;49.514;8.294;2023-03-08T14:19:30;11.40;99.90
563;DHT22;266;49.514;8.294;2023-03-08T14:22:00;11.50;99.90
563;DHT22;266;49.514;8.294;2023-03-08T14:24:30;11.60;99.90
563;DHT22;266;49.514;8.294;2023-03-08T14:27:03;11.50;99.90
563;DHT22;266;49.514;8.294;2023-03-08T14:29:33;11.50;99.90
563;DHT22;266;49.514;8.294;2023-03-08T14:32:04;11.50;99.90
563;DHT22;266;49.514;8.294;2023-03-08T14:34:35;11.50;99.90
563;DHT22;266;49.514;8.294;2023-03-08T14:37:10;11.50;99.90
563;DHT22;266;49.514;8.294;2023-03-08T14:39:41;11.40;99.90
563;DHT22;266;49.514;8.294;2023-03-08T14:42:16;11.30;99.90
563;DHT22;266;49.514;8.294;2023-03-08T14:44:51;11.30;99.90
563;DHT22;266;49.514;8.294;2023-03-08T14:47:21;11.30;99.90
563;DHT22;266;49.514;8.294;2023-03-08T14:50:00;11.30;99.90
563;DHT22;266;49.514;8.294;2023-03-08T14:52:30;11.30;99.90
563;DHT22;266;49.514;8.294;2023-03-08T14:54:59;11.20;99.90
563;DHT22;266;49.514;8.294;2023-03-08T14:57:29;11.20;99.90
563;DHT22;266;49.514;8.294;2023-03-08T15:00:05;11.30;99.90
563;DHT22;266;49.514;8.294;2023-03-08T15:02:39;11.30;99.90
563;DHT22;266;49.514;8.294;2023-03-08T15:05:12;11.30;99.90
563;DHT22;266;49.514;8.294;2023-03-08T15:07:54;11.40;99.90
563;DHT22;266;49.514;8.294;2023-03-08T15:10:26;11.40;99.90
563;DHT22;266;49.514;8.294;2023-03-08T15:12:55;11.50;99.90
563;DHT22;266;49.514;8.294;2023-03-08T15:15:24;11.60;99.90
563;DHT22;266;49.514;8.294;2023-03-08T15:17:53;11.70;99.90
563;DHT22;266;49.514;8.294;2023-03-08T15:20:21;11.70;99.90
563;DHT22;266;49.514;8.294;2023-03-08T15:22:52;11.80;99.90
563;DHT22;266;49.514;8.294;2023-03-08T15:25:23;11.90;99.90
563;DHT22;266;49.514;8.294;2023-03-08T15:27:52;11.90;99.90
563;DHT22;266;49.514;8.294;2023-03-08T15:30:22;11.90;99.90
563;DHT22;266;49.514;8.294;2023-03-08T15:32:52;12.00;99.90
563;DHT22;266;49.514;8.294;2023-03-08T15:35:21;12.00;99.90
563;DHT22;266;49.514;8.294;2023-03-08T15:37:49;12.00;99.90
563;DHT22;266;49.514;8.294;2023-03-08T15:40:19;12.10;99.90
563;DHT22;266;49.514;8.294;2023-03-08T15:42:47;12.20;99.90
563;DHT22;266;49.514;8.294;2023-03-08T15:45:15;12.10;99.90
563;DHT22;266;49.514;8.294;2023-03-08T15:47:43;12.10;99.90
563;DHT22;266;49.514;8.294;2023-03-08T15:50:23;12.10;99.90
563;DHT22;266;49.514;8.294;2023-03-08T15:52:51;12.00;99.90
563;DHT22;266;49.514;8.294;2023-03-08T15:55:20;12.00;99.90
563;DHT22;266;49.514;8.294;2023-03-08T15:57:49;11.90;99.90
563;DHT22;266;49.514;8.294;2023-03-08T16:00:19;11.80;99.90
563;DHT22;266;49.514;8.294;2023-03-08T16:02:48;11.70;99.90
563;DHT22;266;49.514;8.294;2023-03-08T16:05:17;11.80;99.90
563;DHT22;266;49.514;8.294;2023-03-08T16:07:53;11.70;99.90
563;DHT22;266;49.514;8.294;2023-03-08T16:10:21;11.60;99.90
563;DHT22;266;49.514;8.294;2023-03-08T16:12:49;11.60;99.90
563;DHT22;266;49.514;8.294;2023-03-08T16:15:18;11.50;99.90
563;DHT22;266;49.514;8.294;2023-03-08T16:17:46;11.50;99.90
563;DHT22;266;49.514;8.294;2023-03-08T16:20:15;11.40;99.90
563;DHT22;266;49.514;8.294;2023-03-08T16:22:44;11.40;99.90
563;DHT22;266;49.514;8.294;2023-03-08T16:25:13;11.30;99.90
563;DHT22;266;49.514;8.294;2023-03-08T16:27:41;11.20;99.90
563;DHT22;266;49.514;8.294;2023-03-08T16:30:10;11.10;99.90
563;DHT22;266;49.514;8.294;2023-03-08T16:32:39;11.00;99.90
563;DHT22;266;49.514;8.294;2023-03-08T16:35:07;11.00;99.90
563;DHT22;266;49.514;8.294;2023-03-08T16:37:35;10.80;99.90
563;DHT22;266;49.514;8.294;2023-03-08T16:40:04;10.80;99.90
563;DHT22;266;49.514;8.294;2023-03-08T16:42:34;10.70;99.90
563;DHT22;266;49.514;8.294;2023-03-08T16:45:03;10.70;99.90
563;DHT22;266;49.514;8.294;2023-03-08T16:47:31;10.60;99.90
563;DHT22;266;49.514;8.294;2023-03-08T16:49:59;10.50;99.90
563;DHT22;266;49.514;8.294;2023-03-08T16:52:27;10.50;99.90
563;DHT22;266;49.514;8.294;2023-03-08T16:54:55;10.50;99.90
563;DHT22;266;49.514;8.294;2023-03-08T16:57:23;10.60;99.90
563;DHT22;266;49.514;8.294;2023-03-08T16:59:54;10.50;99.90
563;DHT22;266;49.514;8.294;2023-03-08T17:02:22;10.50;99.90
563;DHT22;266;49.514;8.294;2023-03-08T17:04:50;10.60;99.90
563;DHT22;266;49.514;8.294;2023-03-08T17:07:18;10.60;99.90
563;DHT22;266;49.514;8.294;2023-03-08T17:09:45;10.50;99.90
563;DHT22;266;49.514;8.294;2023-03-08T17:12:13;10.40;99.90